sensor_id;sensor_type;location;lat;lon;timestamp;P1;durP1;ratioP1;P2;durP2;ratioP2
75429;SDS011;64127;51.488;5.462;2023-11-21T00:00:20;18.33;;;13.17;;
75429;SDS011;64127;51.488;5.462;2023-11-21T00:02:52;20.17;;;12.87;;
75429;SDS011;64127;51.488;5.462;2023-11-21T00:05:24;17.57;;;13.03;;
75429;SDS011;64127;51.488;5.462;2023-11-21T00:07:56;18.03;;;13.30;;
75429;SDS011;64127;51.488;5.462;2023-11-21T00:10:28;14.47;;;12.70;;
75429;SDS011;64127;51.488;5.462;2023-11-21T00:13:00;16.33;;;13.17;;
75429;SDS011;64127;51.488;5.462;2023-11-21T00:15:34;17.73;;;13.60;;
75429;SDS011;64127;51.488;5.462;2023-11-21T00:18:06;14.63;;;12.33;;
75429;SDS011;64127;51.488;5.462;2023-11-21T00:20:38;17.50;;;13.57;;
75429;SDS011;64127;51.488;5.462;2023-11-21T00:23:10;18.37;;;13.80;;
75429;SDS011;64127;51.488;5.462;2023-11-21T00:25:42;17.83;;;13.73;;
75429;SDS011;64127;51.488;5.462;2023-11-21T00:28:14;19.63;;;14.53;;
75429;SDS011;64127;51.488;5.462;2023-11-21T00:30:46;17.17;;;13.10;;
75429;SDS011;64127;51.488;5.462;2023-11-21T00:33:18;18.27;;;13.47;;
75429;SDS011;64127;51.488;5.462;2023-11-21T00:35:50;14.60;;;12.47;;
75429;SDS011;64127;51.488;5.462;2023-11-21T00:38:22;17.90;;;12.97;;
75429;SDS011;64127;51.488;5.462;2023-11-21T00:40:55;17.97;;;13.50;;
75429;SDS011;64127;51.488;5.462;2023-11-21T00:43:28;16.23;;;13.17;;
75429;SDS011;64127;51.488;5.462;2023-11-21T00:46:03;15.30;;;12.60;;
75429;SDS011;64127;51.488;5.462;2023-11-21T00:48:38;16.73;;;12.27;;
75429;SDS011;64127;51.488;5.462;2023-11-21T00:51:10;17.10;;;11.93;;
75429;SDS011;64127;51.488;5.462;2023-11-21T00:53:42;14.73;;;12.03;;
75429;SDS011;64127;51.488;5.462;2023-11-21T00:56:14;13.90;;;12.27;;
75429;SDS011;64127;51.488;5.462;2023-11-21T00:58:46;15.50;;;11.83;;
75429;SDS011;64127;51.488;5.462;2023-11-21T01:01:21;12.93;;;11.63;;
75429;SDS011;64127;51.488;5.462;2023-11-21T01:03:54;15.03;;;11.67;;
75429;SDS011;64127;51.488;5.462;2023-11-21T01:06:26;15.00;;;12.33;;
75429;SDS011;64127;51.488;5.462;2023-11-21T01:08:58;13.90;;;12.20;;
75429;SDS011;64127;51.488;5.462;2023-11-21T01:11:30;13.77;;;11.13;;
75429;SDS011;64127;51.488;5.462;2023-11-21T01:14:04;14.20;;;11.57;;
75429;SDS011;64127;51.488;5.462;2023-11-21T01:16:37;15.23;;;11.53;;
75429;SDS011;64127;51.488;5.462;2023-11-21T01:19:09;15.80;;;12.40;;
75429;SDS011;64127;51.488;5.462;2023-11-21T01:21:41;14.30;;;11.63;;
75429;SDS011;64127;51.488;5.462;2023-11-21T01:24:13;15.83;;;12.23;;
75429;SDS011;64127;51.488;5.462;2023-11-21T01:26:45;14.37;;;12.20;;
75429;SDS011;64127;51.488;5.462;2023-11-21T01:29:18;15.87;;;12.43;;
75429;SDS011;64127;51.488;5.462;2023-11-21T01:31:50;16.83;;;13.03;;
75429;SDS011;64127;51.488;5.462;2023-11-21T01:34:23;16.27;;;12.00;;
75429;SDS011;64127;51.488;5.462;2023-11-21T01:36:55;16.40;;;12.00;;
75429;SDS011;64127;51.488;5.462;2023-11-21T01:39:27;16.80;;;11.40;;
75429;SDS011;64127;51.488;5.462;2023-11-21T01:41:59;13.77;;;10.57;;
75429;SDS011;64127;51.488;5.462;2023-11-21T01:44:31;14.20;;;11.17;;
75429;SDS011;64127;51.488;5.462;2023-11-21T01:47:03;14.03;;;11.17;;
75429;SDS011;64127;51.488;5.462;2023-11-21T01:49:37;12.40;;;11.03;;
75429;SDS011;64127;51.488;5.462;2023-11-21T01:52:09;13.53;;;11.50;;
75429;SDS011;64127;51.488;5.462;2023-11-21T01:54:42;13.43;;;11.10;;
75429;SDS011;64127;51.488;5.462;2023-11-21T01:57:14;13.63;;;10.93;;
75429;SDS011;64127;51.488;5.462;2023-11-21T01:59:47;12.90;;;11.57;;
75429;SDS011;64127;51.488;5.462;2023-11-21T02:02:21;13.87;;;11.50;;
75429;SDS011;64127;51.488;5.462;2023-11-21T02:04:53;15.93;;;12.03;;
75429;SDS011;64127;51.488;5.462;2023-11-21T02:07:25;26.70;;;13.50;;
75429;SDS011;64127;51.488;5.462;2023-11-21T02:09:58;35.00;;;14.63;;
75429;SDS011;64127;51.488;5.462;2023-11-21T02:12:30;51.17;;;16.40;;
75429;SDS011;64127;51.488;5.462;2023-11-21T02:15:02;63.57;;;15.23;;
75429;SDS011;64127;51.488;5.462;2023-11-21T02:17:46;90.27;;;15.57;;
75429;SDS011;64127;51.488;5.462;2023-11-21T02:20:24;86.43;;;14.97;;
75429;SDS011;64127;51.488;5.462;2023-11-21T02:22:57;65.40;;;16.13;;
75429;SDS011;64127;51.488;5.462;2023-11-21T02:25:31;74.63;;;16.53;;
75429;SDS011;64127;51.488;5.462;2023-11-21T02:28:05;71.50;;;15.90;;
75429;SDS011;64127;51.488;5.462;2023-11-21T02:30:38;82.93;;;15.77;;
75429;SDS011;64127;51.488;5.462;2023-11-21T02:33:10;69.37;;;16.10;;
75429;SDS011;64127;51.488;5.462;2023-11-21T02:35:43;66.83;;;15.87;;
75429;SDS011;64127;51.488;5.462;2023-11-21T02:38:16;51.70;;;15.63;;
75429;SDS011;64127;51.488;5.462;2023-11-21T02:40:48;42.13;;;15.10;;
75429;SDS011;64127;51.488;5.462;2023-11-21T02:43:20;57.67;;;15.37;;
75429;SDS011;64127;51.488;5.462;2023-11-21T02:45:52;57.10;;;16.07;;
75429;SDS011;64127;51.488;5.462;2023-11-21T02:48:24;42.93;;;15.73;;
75429;SDS011;64127;51.488;5.462;2023-11-21T02:50:57;57.90;;;16.67;;
75429;SDS011;64127;51.488;5.462;2023-11-21T02:53:29;50.57;;;16.03;;
75429;SDS011;64127;51.488;5.462;2023-11-21T02:56:01;43.23;;;15.20;;
75429;SDS011;64127;51.488;5.462;2023-11-21T02:58:33;47.03;;;15.70;;
75429;SDS011;64127;51.488;5.462;2023-11-21T03:01:05;34.27;;;15.40;;
75429;SDS011;64127;51.488;5.462;2023-11-21T03:03:37;45.03;;;16.70;;
75429;SDS011;64127;51.488;5.462;2023-11-21T03:06:11;36.83;;;16.30;;
75429;SDS011;64127;51.488;5.462;2023-11-21T03:08:43;48.43;;;16.63;;
75429;SDS011;64127;51.488;5.462;2023-11-21T03:11:16;33.13;;;15.87;;
75429;SDS011;64127;51.488;5.462;2023-11-21T03:13:48;35.57;;;16.13;;
75429;SDS011;64127;51.488;5.462;2023-11-21T03:16:20;35.90;;;15.90;;
75429;SDS011;64127;51.488;5.462;2023-11-21T03:18:52;36.33;;;15.67;;
75429;SDS011;64127;51.488;5.462;2023-11-21T03:21:24;35.67;;;16.10;;
75429;SDS011;64127;51.488;5.462;2023-11-21T03:23:57;28.53;;;15.97;;
75429;SDS011;64127;51.488;5.462;2023-11-21T03:26:31;26.03;;;16.40;;
75429;SDS011;64127;51.488;5.462;2023-11-21T03:29:03;24.33;;;16.57;;
75429;SDS011;64127;51.488;5.462;2023-11-21T03:31:36;28.10;;;16.23;;
75429;SDS011;64127;51.488;5.462;2023-11-21T03:34:10;36.50;;;16.93;;
75429;SDS011;64127;51.488;5.462;2023-11-21T03:36:47;36.07;;;17.80;;
75429;SDS011;64127;51.488;5.462;2023-11-21T03:39:20;30.23;;;16.57;;
75429;SDS011;64127;51.488;5.462;2023-11-21T03:41:52;24.80;;;16.00;;
75429;SDS011;64127;51.488;5.462;2023-11-21T03:44:24;31.47;;;16.47;;
75429;SDS011;64127;51.488;5.462;2023-11-21T03:46:56;44.73;;;17.40;;
75429;SDS011;64127;51.488;5.462;2023-11-21T03:49:28;50.60;;;17.63;;
75429;SDS011;64127;51.488;5.462;2023-11-21T03:52:00;31.20;;;16.17;;
75429;SDS011;64127;51.488;5.462;2023-11-21T03:54:34;32.63;;;16.17;;
75429;SDS011;64127;51.488;5.462;2023-11-21T03:57:07;36.97;;;16.30;;
75429;SDS011;64127;51.488;5.462;2023-11-21T03:59:40;38.33;;;17.30;;
75429;SDS011;64127;51.488;5.462;2023-11-21T04:02:13;34.77;;;16.13;;
75429;SDS011;64127;51.488;5.462;2023-11-21T04:04:45;44.37;;;16.27;;
75429;SDS011;64127;51.488;5.462;2023-11-21T04:07:18;56.07;;;17.27;;
75429;SDS011;64127;51.488;5.462;2023-11-21T04:09:50;83.97;;;17.33;;
75429;SDS011;64127;51.488;5.462;2023-11-21T04:12:22;47.73;;;16.40;;
75429;SDS011;64127;51.488;5.462;2023-11-21T04:14:54;55.50;;;17.07;;
75429;SDS011;64127;51.488;5.462;2023-11-21T04:17:26;26.57;;;15.87;;
75429;SDS011;64127;51.488;5.462;2023-11-21T04:19:58;34.13;;;16.57;;
75429;SDS011;64127;51.488;5.462;2023-11-21T04:22:30;29.13;;;16.43;;
75429;SDS011;64127;51.488;5.462;2023-11-21T04:25:02;43.53;;;17.13;;
75429;SDS011;64127;51.488;5.462;2023-11-21T04:27:35;30.20;;;16.60;;
75429;SDS011;64127;51.488;5.462;2023-11-21T04:30:07;30.97;;;16.57;;
75429;SDS011;64127;51.488;5.462;2023-11-21T04:32:41;35.90;;;16.57;;
75429;SDS011;64127;51.488;5.462;2023-11-21T04:35:13;28.80;;;17.10;;
75429;SDS011;64127;51.488;5.462;2023-11-21T04:37:46;24.33;;;16.93;;
75429;SDS011;64127;51.488;5.462;2023-11-21T04:40:18;25.47;;;15.87;;
75429;SDS011;64127;51.488;5.462;2023-11-21T04:42:52;26.33;;;16.57;;
75429;SDS011;64127;51.488;5.462;2023-11-21T04:45:24;25.97;;;16.83;;
75429;SDS011;64127;51.488;5.462;2023-11-21T04:47:56;22.60;;;16.57;;
75429;SDS011;64127;51.488;5.462;2023-11-21T04:50:28;18.90;;;17.00;;
75429;SDS011;64127;51.488;5.462;2023-11-21T04:53:00;22.50;;;17.60;;
75429;SDS011;64127;51.488;5.462;2023-11-21T04:55:32;23.63;;;17.27;;
75429;SDS011;64127;51.488;5.462;2023-11-21T04:58:04;18.90;;;16.90;;
75429;SDS011;64127;51.488;5.462;2023-11-21T05:00:36;18.37;;;16.43;;
75429;SDS011;64127;51.488;5.462;2023-11-21T05:03:09;19.97;;;17.53;;
75429;SDS011;64127;51.488;5.462;2023-11-21T05:05:41;18.37;;;16.57;;
75429;SDS011;64127;51.488;5.462;2023-11-21T05:08:13;16.90;;;15.20;;
75429;SDS011;64127;51.488;5.462;2023-11-21T05:10:45;19.77;;;16.23;;
75429;SDS011;64127;51.488;5.462;2023-11-21T05:13:17;20.80;;;16.57;;
75429;SDS011;64127;51.488;5.462;2023-11-21T05:15:50;18.10;;;16.30;;
75429;SDS011;64127;51.488;5.462;2023-11-21T05:18:22;19.77;;;17.57;;
75429;SDS011;64127;51.488;5.462;2023-11-21T05:20:54;17.73;;;15.83;;
75429;SDS011;64127;51.488;5.462;2023-11-21T05:23:27;18.50;;;16.50;;
75429;SDS011;64127;51.488;5.462;2023-11-21T05:25:59;18.83;;;16.83;;
75429;SDS011;64127;51.488;5.462;2023-11-21T05:28:31;19.23;;;16.27;;
75429;SDS011;64127;51.488;5.462;2023-11-21T05:31:03;19.10;;;16.07;;
75429;SDS011;64127;51.488;5.462;2023-11-21T05:33:46;18.60;;;16.60;;
75429;SDS011;64127;51.488;5.462;2023-11-21T05:36:18;20.80;;;16.93;;
75429;SDS011;64127;51.488;5.462;2023-11-21T05:38:50;18.50;;;16.47;;
75429;SDS011;64127;51.488;5.462;2023-11-21T05:41:22;18.03;;;16.13;;
75429;SDS011;64127;51.488;5.462;2023-11-21T05:43:54;21.40;;;17.40;;
75429;SDS011;64127;51.488;5.462;2023-11-21T05:46:26;19.17;;;16.63;;
75429;SDS011;64127;51.488;5.462;2023-11-21T05:48:59;25.20;;;17.03;;
75429;SDS011;64127;51.488;5.462;2023-11-21T05:51:31;21.47;;;17.47;;
75429;SDS011;64127;51.488;5.462;2023-11-21T05:54:03;23.87;;;17.37;;
75429;SDS011;64127;51.488;5.462;2023-11-21T05:56:35;22.40;;;16.73;;
75429;SDS011;64127;51.488;5.462;2023-11-21T05:59:07;24.50;;;17.60;;
75429;SDS011;64127;51.488;5.462;2023-11-21T06:01:39;22.57;;;17.40;;
75429;SDS011;64127;51.488;5.462;2023-11-21T06:04:12;29.33;;;19.27;;
75429;SDS011;64127;51.488;5.462;2023-11-21T06:06:44;27.13;;;18.23;;
75429;SDS011;64127;51.488;5.462;2023-11-21T06:09:16;29.97;;;18.67;;
75429;SDS011;64127;51.488;5.462;2023-11-21T06:11:48;31.57;;;19.60;;
75429;SDS011;64127;51.488;5.462;2023-11-21T06:14:20;29.33;;;19.60;;
75429;SDS011;64127;51.488;5.462;2023-11-21T06:16:53;28.83;;;19.00;;
75429;SDS011;64127;51.488;5.462;2023-11-21T06:19:27;36.80;;;19.53;;
75429;SDS011;64127;51.488;5.462;2023-11-21T06:21:59;35.97;;;19.77;;
75429;SDS011;64127;51.488;5.462;2023-11-21T06:24:33;29.20;;;19.80;;
75429;SDS011;64127;51.488;5.462;2023-11-21T06:27:05;37.67;;;21.83;;
75429;SDS011;64127;51.488;5.462;2023-11-21T06:29:37;41.77;;;20.30;;
75429;SDS011;64127;51.488;5.462;2023-11-21T06:32:09;36.23;;;21.10;;
75429;SDS011;64127;51.488;5.462;2023-11-21T06:34:41;43.43;;;21.17;;
75429;SDS011;64127;51.488;5.462;2023-11-21T06:37:14;38.70;;;21.40;;
75429;SDS011;64127;51.488;5.462;2023-11-21T06:39:46;43.70;;;22.40;;
75429;SDS011;64127;51.488;5.462;2023-11-21T06:42:18;42.63;;;21.83;;
75429;SDS011;64127;51.488;5.462;2023-11-21T06:44:51;51.90;;;21.80;;
75429;SDS011;64127;51.488;5.462;2023-11-21T06:47:25;43.13;;;22.40;;
75429;SDS011;64127;51.488;5.462;2023-11-21T06:49:58;51.67;;;24.77;;
75429;SDS011;64127;51.488;5.462;2023-11-21T06:52:31;64.40;;;23.27;;
75429;SDS011;64127;51.488;5.462;2023-11-21T06:55:04;48.57;;;22.40;;
75429;SDS011;64127;51.488;5.462;2023-11-21T06:57:39;49.00;;;23.27;;
75429;SDS011;64127;51.488;5.462;2023-11-21T07:00:11;47.70;;;24.33;;
75429;SDS011;64127;51.488;5.462;2023-11-21T07:02:44;48.17;;;23.80;;
75429;SDS011;64127;51.488;5.462;2023-11-21T07:05:16;49.00;;;23.87;;
75429;SDS011;64127;51.488;5.462;2023-11-21T07:07:52;57.60;;;23.13;;
75429;SDS011;64127;51.488;5.462;2023-11-21T07:10:25;59.80;;;25.60;;
75429;SDS011;64127;51.488;5.462;2023-11-21T07:12:57;55.87;;;24.83;;
75429;SDS011;64127;51.488;5.462;2023-11-21T07:15:29;49.70;;;23.80;;
75429;SDS011;64127;51.488;5.462;2023-11-21T07:18:01;44.83;;;22.97;;
75429;SDS011;64127;51.488;5.462;2023-11-21T07:20:33;42.13;;;22.87;;
75429;SDS011;64127;51.488;5.462;2023-11-21T07:23:05;56.57;;;25.10;;
75429;SDS011;64127;51.488;5.462;2023-11-21T07:25:38;53.53;;;25.63;;
75429;SDS011;64127;51.488;5.462;2023-11-21T07:28:10;59.73;;;25.77;;
75429;SDS011;64127;51.488;5.462;2023-11-21T07:30:42;44.07;;;23.47;;
75429;SDS011;64127;51.488;5.462;2023-11-21T07:33:14;55.13;;;25.43;;
75429;SDS011;64127;51.488;5.462;2023-11-21T07:35:46;48.40;;;23.37;;
75429;SDS011;64127;51.488;5.462;2023-11-21T07:38:18;56.07;;;25.13;;
75429;SDS011;64127;51.488;5.462;2023-11-21T07:40:50;49.33;;;25.60;;
75429;SDS011;64127;51.488;5.462;2023-11-21T07:43:22;53.00;;;25.73;;
75429;SDS011;64127;51.488;5.462;2023-11-21T07:45:54;53.07;;;24.67;;
75429;SDS011;64127;51.488;5.462;2023-11-21T07:48:26;50.30;;;24.37;;
75429;SDS011;64127;51.488;5.462;2023-11-21T07:50:58;58.20;;;25.20;;
75429;SDS011;64127;51.488;5.462;2023-11-21T07:53:32;49.50;;;24.13;;
75429;SDS011;64127;51.488;5.462;2023-11-21T07:56:08;46.23;;;24.00;;
75429;SDS011;64127;51.488;5.462;2023-11-21T07:58:40;47.70;;;24.20;;
75429;SDS011;64127;51.488;5.462;2023-11-21T08:01:12;45.90;;;23.20;;
75429;SDS011;64127;51.488;5.462;2023-11-21T08:03:44;50.37;;;24.37;;
75429;SDS011;64127;51.488;5.462;2023-11-21T08:06:16;46.43;;;24.87;;
75429;SDS011;64127;51.488;5.462;2023-11-21T08:08:48;44.60;;;24.00;;
75429;SDS011;64127;51.488;5.462;2023-11-21T08:11:20;42.90;;;23.73;;
75429;SDS011;64127;51.488;5.462;2023-11-21T08:13:53;41.60;;;23.63;;
75429;SDS011;64127;51.488;5.462;2023-11-21T08:16:26;41.50;;;23.37;;
75429;SDS011;64127;51.488;5.462;2023-11-21T08:18:59;47.73;;;24.33;;
75429;SDS011;64127;51.488;5.462;2023-11-21T08:21:31;40.47;;;23.23;;
75429;SDS011;64127;51.488;5.462;2023-11-21T08:24:03;42.87;;;24.13;;
75429;SDS011;64127;51.488;5.462;2023-11-21T08:26:39;42.33;;;24.63;;
75429;SDS011;64127;51.488;5.462;2023-11-21T08:29:11;41.23;;;23.83;;
75429;SDS011;64127;51.488;5.462;2023-11-21T08:31:43;38.53;;;23.87;;
75429;SDS011;64127;51.488;5.462;2023-11-21T08:34:18;42.53;;;24.07;;
75429;SDS011;64127;51.488;5.462;2023-11-21T08:36:50;37.80;;;23.57;;
75429;SDS011;64127;51.488;5.462;2023-11-21T08:39:22;34.90;;;22.30;;
75429;SDS011;64127;51.488;5.462;2023-11-21T08:41:55;42.27;;;24.37;;
75429;SDS011;64127;51.488;5.462;2023-11-21T08:44:28;36.10;;;23.87;;
75429;SDS011;64127;51.488;5.462;2023-11-21T08:47:01;33.33;;;23.47;;
75429;SDS011;64127;51.488;5.462;2023-11-21T08:49:38;37.87;;;24.17;;
75429;SDS011;64127;51.488;5.462;2023-11-21T08:52:11;37.00;;;23.53;;
75429;SDS011;64127;51.488;5.462;2023-11-21T08:54:43;34.73;;;23.23;;
75429;SDS011;64127;51.488;5.462;2023-11-21T08:57:16;34.27;;;23.67;;
75429;SDS011;64127;51.488;5.462;2023-11-21T08:59:48;35.53;;;25.07;;
75429;SDS011;64127;51.488;5.462;2023-11-21T09:02:26;38.27;;;23.03;;
75429;SDS011;64127;51.488;5.462;2023-11-21T09:04:58;36.63;;;24.67;;
75429;SDS011;64127;51.488;5.462;2023-11-21T09:07:30;40.93;;;24.57;;
75429;SDS011;64127;51.488;5.462;2023-11-21T09:10:03;38.83;;;24.77;;
75429;SDS011;64127;51.488;5.462;2023-11-21T09:12:38;41.93;;;26.10;;
75429;SDS011;64127;51.488;5.462;2023-11-21T09:15:10;35.43;;;23.50;;
75429;SDS011;64127;51.488;5.462;2023-11-21T09:17:43;32.50;;;23.37;;
75429;SDS011;64127;51.488;5.462;2023-11-21T09:20:16;43.33;;;25.87;;
75429;SDS011;64127;51.488;5.462;2023-11-21T09:22:48;38.23;;;25.00;;
75429;SDS011;64127;51.488;5.462;2023-11-21T09:25:21;38.80;;;24.60;;
75429;SDS011;64127;51.488;5.462;2023-11-21T09:27:54;39.50;;;24.70;;
75429;SDS011;64127;51.488;5.462;2023-11-21T09:30:26;33.97;;;24.47;;
75429;SDS011;64127;51.488;5.462;2023-11-21T09:32:58;42.97;;;25.73;;
75429;SDS011;64127;51.488;5.462;2023-11-21T09:35:30;42.13;;;26.20;;
75429;SDS011;64127;51.488;5.462;2023-11-21T09:38:03;36.43;;;25.10;;
75429;SDS011;64127;51.488;5.462;2023-11-21T09:40:41;37.17;;;24.90;;
75429;SDS011;64127;51.488;5.462;2023-11-21T09:43:16;40.63;;;26.07;;
75429;SDS011;64127;51.488;5.462;2023-11-21T09:46:11;45.13;;;27.17;;
75429;SDS011;64127;51.488;5.462;2023-11-21T09:48:48;40.70;;;26.50;;
75429;SDS011;64127;51.488;5.462;2023-11-21T09:51:25;39.83;;;26.10;;
75429;SDS011;64127;51.488;5.462;2023-11-21T09:54:01;41.53;;;25.67;;
75429;SDS011;64127;51.488;5.462;2023-11-21T09:56:40;44.63;;;27.23;;
75429;SDS011;64127;51.488;5.462;2023-11-21T09:59:13;45.13;;;28.30;;
75429;SDS011;64127;51.488;5.462;2023-11-21T10:01:47;45.43;;;28.23;;
75429;SDS011;64127;51.488;5.462;2023-11-21T10:04:19;45.63;;;27.53;;
75429;SDS011;64127;51.488;5.462;2023-11-21T10:06:52;46.33;;;29.00;;
75429;SDS011;64127;51.488;5.462;2023-11-21T10:09:25;52.17;;;27.77;;
75429;SDS011;64127;51.488;5.462;2023-11-21T10:11:58;51.13;;;26.90;;
75429;SDS011;64127;51.488;5.462;2023-11-21T10:14:32;51.47;;;29.03;;
75429;SDS011;64127;51.488;5.462;2023-11-21T10:17:12;44.67;;;28.50;;
75429;SDS011;64127;51.488;5.462;2023-11-21T10:19:47;41.57;;;26.13;;
75429;SDS011;64127;51.488;5.462;2023-11-21T10:22:20;47.83;;;27.00;;
75429;SDS011;64127;51.488;5.462;2023-11-21T10:24:55;43.37;;;26.13;;
75429;SDS011;64127;51.488;5.462;2023-11-21T10:27:27;40.17;;;26.13;;
75429;SDS011;64127;51.488;5.462;2023-11-21T10:30:02;42.77;;;26.37;;
75429;SDS011;64127;51.488;5.462;2023-11-21T10:32:35;46.90;;;26.63;;
75429;SDS011;64127;51.488;5.462;2023-11-21T10:35:08;42.13;;;25.97;;
75429;SDS011;64127;51.488;5.462;2023-11-21T10:37:43;42.23;;;25.77;;
75429;SDS011;64127;51.488;5.462;2023-11-21T10:40:15;46.87;;;28.33;;
75429;SDS011;64127;51.488;5.462;2023-11-21T10:42:47;37.87;;;25.07;;
75429;SDS011;64127;51.488;5.462;2023-11-21T10:45:19;39.80;;;24.77;;
75429;SDS011;64127;51.488;5.462;2023-11-21T10:47:53;36.90;;;23.33;;
75429;SDS011;64127;51.488;5.462;2023-11-21T10:50:26;42.23;;;25.03;;
75429;SDS011;64127;51.488;5.462;2023-11-21T10:52:58;43.30;;;25.23;;
75429;SDS011;64127;51.488;5.462;2023-11-21T10:55:30;42.03;;;25.70;;
75429;SDS011;64127;51.488;5.462;2023-11-21T10:58:04;47.13;;;26.73;;
75429;SDS011;64127;51.488;5.462;2023-11-21T11:00:37;43.23;;;24.30;;
75429;SDS011;64127;51.488;5.462;2023-11-21T11:03:12;43.77;;;25.43;;
75429;SDS011;64127;51.488;5.462;2023-11-21T11:05:48;39.57;;;23.47;;
75429;SDS011;64127;51.488;5.462;2023-11-21T11:08:24;38.83;;;23.80;;
75429;SDS011;64127;51.488;5.462;2023-11-21T11:10:59;39.23;;;24.73;;
75429;SDS011;64127;51.488;5.462;2023-11-21T11:13:31;42.27;;;24.10;;
75429;SDS011;64127;51.488;5.462;2023-11-21T11:16:04;39.30;;;24.17;;
75429;SDS011;64127;51.488;5.462;2023-11-21T11:18:39;38.07;;;23.93;;
75429;SDS011;64127;51.488;5.462;2023-11-21T11:21:15;40.73;;;24.20;;
75429;SDS011;64127;51.488;5.462;2023-11-21T11:27:27;34.50;;;22.33;;
75429;SDS011;64127;51.488;5.462;2023-11-21T11:37:02;32.90;;;21.03;;
75429;SDS011;64127;51.488;5.462;2023-11-21T11:39:41;31.00;;;19.23;;
75429;SDS011;64127;51.488;5.462;2023-11-21T11:42:17;31.07;;;20.23;;
75429;SDS011;64127;51.488;5.462;2023-11-21T11:44:51;29.43;;;20.13;;
75429;SDS011;64127;51.488;5.462;2023-11-21T11:47:25;31.83;;;20.90;;
75429;SDS011;64127;51.488;5.462;2023-11-21T11:50:09;37.77;;;22.10;;
75429;SDS011;64127;51.488;5.462;2023-11-21T11:52:46;35.00;;;22.50;;
75429;SDS011;64127;51.488;5.462;2023-11-21T11:55:20;37.83;;;22.47;;
75429;SDS011;64127;51.488;5.462;2023-11-21T11:57:55;34.70;;;22.33;;
75429;SDS011;64127;51.488;5.462;2023-11-21T12:03:02;35.40;;;21.20;;
75429;SDS011;64127;51.488;5.462;2023-11-21T12:05:36;32.63;;;20.17;;
75429;SDS011;64127;51.488;5.462;2023-11-21T12:08:12;33.23;;;20.53;;
75429;SDS011;64127;51.488;5.462;2023-11-21T12:10:47;32.23;;;21.00;;
75429;SDS011;64127;51.488;5.462;2023-11-21T12:13:20;31.47;;;19.43;;
75429;SDS011;64127;51.488;5.462;2023-11-21T12:15:54;27.83;;;19.33;;
75429;SDS011;64127;51.488;5.462;2023-11-21T12:18:26;29.37;;;19.83;;
75429;SDS011;64127;51.488;5.462;2023-11-21T12:20:59;33.67;;;20.83;;
75429;SDS011;64127;51.488;5.462;2023-11-21T12:23:31;32.33;;;22.00;;
75429;SDS011;64127;51.488;5.462;2023-11-21T12:26:03;37.33;;;22.23;;
75429;SDS011;64127;51.488;5.462;2023-11-21T12:28:36;37.57;;;22.70;;
75429;SDS011;64127;51.488;5.462;2023-11-21T12:31:08;36.50;;;23.07;;
75429;SDS011;64127;51.488;5.462;2023-11-21T12:33:52;39.70;;;23.27;;
75429;SDS011;64127;51.488;5.462;2023-11-21T12:36:24;35.97;;;23.43;;
75429;SDS011;64127;51.488;5.462;2023-11-21T12:38:57;36.47;;;23.90;;
75429;SDS011;64127;51.488;5.462;2023-11-21T12:41:29;35.27;;;23.47;;
75429;SDS011;64127;51.488;5.462;2023-11-21T12:44:02;38.63;;;24.37;;
75429;SDS011;64127;51.488;5.462;2023-11-21T12:46:34;33.23;;;22.97;;
75429;SDS011;64127;51.488;5.462;2023-11-21T12:49:06;36.80;;;23.60;;
75429;SDS011;64127;51.488;5.462;2023-11-21T12:51:39;35.03;;;22.47;;
75429;SDS011;64127;51.488;5.462;2023-11-21T12:54:11;34.40;;;22.13;;
75429;SDS011;64127;51.488;5.462;2023-11-21T12:56:47;32.13;;;21.33;;
75429;SDS011;64127;51.488;5.462;2023-11-21T12:59:21;30.67;;;21.13;;
75429;SDS011;64127;51.488;5.462;2023-11-21T13:01:54;29.77;;;19.53;;
75429;SDS011;64127;51.488;5.462;2023-11-21T13:04:31;26.30;;;18.10;;
75429;SDS011;64127;51.488;5.462;2023-11-21T13:07:06;27.23;;;19.13;;
75429;SDS011;64127;51.488;5.462;2023-11-21T13:09:45;28.07;;;19.00;;
75429;SDS011;64127;51.488;5.462;2023-11-21T13:12:17;26.77;;;19.13;;
75429;SDS011;64127;51.488;5.462;2023-11-21T13:14:56;29.50;;;18.90;;
75429;SDS011;64127;51.488;5.462;2023-11-21T13:17:34;29.67;;;19.47;;
75429;SDS011;64127;51.488;5.462;2023-11-21T13:20:06;28.93;;;18.93;;
75429;SDS011;64127;51.488;5.462;2023-11-21T13:25:37;27.07;;;19.60;;
75429;SDS011;64127;51.488;5.462;2023-11-21T13:28:13;28.30;;;18.83;;
75429;SDS011;64127;51.488;5.462;2023-11-21T13:30:47;31.00;;;20.77;;
75429;SDS011;64127;51.488;5.462;2023-11-21T13:33:19;32.87;;;21.33;;
75429;SDS011;64127;51.488;5.462;2023-11-21T13:35:58;31.27;;;20.70;;
75429;SDS011;64127;51.488;5.462;2023-11-21T13:38:32;31.57;;;20.80;;
75429;SDS011;64127;51.488;5.462;2023-11-21T13:41:06;31.37;;;20.67;;
75429;SDS011;64127;51.488;5.462;2023-11-21T13:43:40;28.20;;;20.03;;
75429;SDS011;64127;51.488;5.462;2023-11-21T13:46:15;30.20;;;20.37;;
75429;SDS011;64127;51.488;5.462;2023-11-21T13:48:53;28.90;;;19.37;;
75429;SDS011;64127;51.488;5.462;2023-11-21T13:51:28;29.90;;;20.17;;
75429;SDS011;64127;51.488;5.462;2023-11-21T13:54:10;28.30;;;19.17;;
75429;SDS011;64127;51.488;5.462;2023-11-21T13:56:42;31.30;;;20.60;;
75429;SDS011;64127;51.488;5.462;2023-11-21T13:59:16;28.37;;;19.53;;
75429;SDS011;64127;51.488;5.462;2023-11-21T14:01:57;32.67;;;21.13;;
75429;SDS011;64127;51.488;5.462;2023-11-21T14:04:32;32.20;;;21.23;;
75429;SDS011;64127;51.488;5.462;2023-11-21T14:07:04;32.37;;;20.93;;
75429;SDS011;64127;51.488;5.462;2023-11-21T14:09:54;35.97;;;22.80;;
75429;SDS011;64127;51.488;5.462;2023-11-21T14:12:26;34.23;;;22.60;;
75429;SDS011;64127;51.488;5.462;2023-11-21T14:15:00;32.67;;;21.97;;
75429;SDS011;64127;51.488;5.462;2023-11-21T14:17:34;33.43;;;21.13;;
75429;SDS011;64127;51.488;5.462;2023-11-21T14:20:09;33.27;;;21.00;;
75429;SDS011;64127;51.488;5.462;2023-11-21T14:22:48;32.77;;;21.47;;
75429;SDS011;64127;51.488;5.462;2023-11-21T14:25:20;34.30;;;22.23;;
75429;SDS011;64127;51.488;5.462;2023-11-21T14:27:53;33.10;;;22.30;;
75429;SDS011;64127;51.488;5.462;2023-11-21T14:30:27;31.67;;;21.90;;
75429;SDS011;64127;51.488;5.462;2023-11-21T14:33:04;37.33;;;21.63;;
75429;SDS011;64127;51.488;5.462;2023-11-21T14:35:37;35.33;;;22.60;;
75429;SDS011;64127;51.488;5.462;2023-11-21T14:38:09;34.00;;;21.70;;
75429;SDS011;64127;51.488;5.462;2023-11-21T14:40:41;35.60;;;22.07;;
75429;SDS011;64127;51.488;5.462;2023-11-21T14:43:13;35.00;;;22.03;;
75429;SDS011;64127;51.488;5.462;2023-11-21T14:45:45;30.43;;;20.90;;
75429;SDS011;64127;51.488;5.462;2023-11-21T14:48:17;32.33;;;21.83;;
75429;SDS011;64127;51.488;5.462;2023-11-21T14:51:03;32.30;;;21.27;;
75429;SDS011;64127;51.488;5.462;2023-11-21T14:53:35;32.60;;;22.63;;
75429;SDS011;64127;51.488;5.462;2023-11-21T14:56:26;33.87;;;21.97;;
75429;SDS011;64127;51.488;5.462;2023-11-21T14:59:02;33.43;;;20.97;;
75429;SDS011;64127;51.488;5.462;2023-11-21T15:01:39;32.87;;;20.80;;
75429;SDS011;64127;51.488;5.462;2023-11-21T15:04:26;28.27;;;19.73;;
75429;SDS011;64127;51.488;5.462;2023-11-21T15:07:08;28.83;;;20.43;;
75429;SDS011;64127;51.488;5.462;2023-11-21T15:09:42;28.20;;;18.30;;
75429;SDS011;64127;51.488;5.462;2023-11-21T15:12:16;27.43;;;19.27;;